Time;durP1;ratioP1;P1;durP2;ratioP2;P2;SDS_P1;SDS_P2;PMS_P1;PMS_P2;Temp;Humidity;BMP_temperature;BMP_pressure;BME280_temperature;BME280_humidity;BME280_pressure;Samples;Min_cycle;Max_cycle;Signal;HPM_P1;HPM_P2
2022/09/02 00:00:42;;;;;;;3.22;1.60;;;15.70;99.90;;;;;;5034561;28;20052;-60
2022/09/02 00:03:08;;;;;;;1.90;1.30;;;15.70;99.90;;;;;;5051384;28;20132;-59
2022/09/02 00:05:34;;;;;;;3.78;1.98;;;15.60;99.90;;;;;;5034400;28;20127;-60
2022/09/02 00:07:59;;;;;;;2.38;1.40;;;15.60;99.90;;;;;;5034335;28;20406;-63
2022/09/02 00:10:25;;;;;;;3.10;1.55;;;15.60;99.90;;;;;;5033861;28;20085;-62
2022/09/02 00:12:52;;;;;;;3.40;1.40;;;15.50;99.90;;;;;;5051079;28;20059;-60
2022/09/02 00:15:18;;;;;;;6.18;1.58;;;15.50;99.90;;;;;;5050891;28;20127;-62
2022/09/02 00:17:43;;;;;;;2.03;1.63;;;15.50;99.90;;;;;;5033525;28;20124;-60
2022/09/02 00:20:09;;;;;;;3.03;1.60;;;15.40;99.90;;;;;;5051237;28;20060;-60
2022/09/02 00:22:35;;;;;;;3.78;1.63;;;15.40;99.90;;;;;;5051909;28;20037;-60
2022/09/02 00:25:01;;;;;;;4.05;2.03;;;15.40;99.90;;;;;;5051906;28;20422;-60
2022/09/02 00:27:26;;;;;;;3.15;1.70;;;15.30;99.90;;;;;;5034103;28;20073;-61
2022/09/02 00:29:52;;;;;;;4.93;1.80;;;15.30;99.90;;;;;;5017705;28;20056;-61
2022/09/02 00:32:18;;;;;;;2.13;1.73;;;15.30;99.90;;;;;;5051524;28;20051;-60
2022/09/02 00:34:44;;;;;;;3.90;1.67;;;15.30;99.90;;;;;;5017597;28;20053;-60
2022/09/02 00:37:12;;;;;;;3.78;1.80;;;15.20;99.90;;;;;;5051545;28;20136;-60
2022/09/02 00:39:38;;;;;;;3.47;1.60;;;15.20;99.90;;;;;;5051561;28;20045;-60
2022/09/02 00:42:05;;;;;;;2.22;1.65;;;15.20;99.90;;;;;;5051550;28;20048;-62
2022/09/02 00:44:32;;;;;;;6.03;1.90;;;15.10;99.90;;;;;;5051052;28;20128;-60
2022/09/02 00:46:59;;;;;;;2.13;1.60;;;15.10;99.90;;;;;;5017643;28;20045;-60
2022/09/02 00:49:31;;;;;;;2.90;1.70;;;15.10;99.90;;;;;;5051140;28;20048;-60
2022/09/02 00:52:11;;;;;;;3.30;1.85;;;15.10;99.90;;;;;;5051522;28;20047;-60
2022/09/02 00:54:44;;;;;;;3.45;1.90;;;15.00;99.90;;;;;;5033512;28;20097;-60
2022/09/02 00:57:18;;;;;;;3.35;2.20;;;15.00;99.90;;;;;;5051351;28;20124;-60
2022/09/02 01:00:12;;;;;;;3.28;1.90;;;15.00;99.90;;;;;;5033685;28;20036;-59
2022/09/02 01:02:40;;;;;;;5.43;1.85;;;15.00;99.90;;;;;;5032975;28;20100;-60
2022/09/02 01:05:09;;;;;;;2.35;1.80;;;14.90;99.90;;;;;;5051381;28;20053;-60
2022/09/02 01:07:37;;;;;;;4.78;2.00;;;14.90;99.90;;;;;;5050767;28;20350;-60
2022/09/02 01:10:09;;;;;;;9.00;2.25;;;14.80;99.90;;;;;;5001211;28;20060;-59
2022/09/02 01:12:36;;;;;;;3.22;1.88;;;14.80;99.90;;;;;;5033193;28;20048;-59
2022/09/02 01:15:04;;;;;;;2.90;1.83;;;14.80;99.90;;;;;;5033525;28;20049;-60
2022/09/02 01:17:32;;;;;;;3.38;2.13;;;14.80;99.90;;;;;;5050685;28;20057;-59
2022/09/02 01:20:03;;;;;;;5.07;2.10;;;14.70;99.90;;;;;;5051193;28;20049;-59
2022/09/02 01:22:30;;;;;;;4.63;2.33;;;14.70;99.90;;;;;;5051027;28;20045;-60
2022/09/02 01:25:03;;;;;;;4.63;2.42;;;14.70;99.90;;;;;;5053796;28;20057;-59
2022/09/02 01:27:29;;;;;;;3.67;2.47;;;14.70;99.90;;;;;;5054779;28;20048;-60
2022/09/02 01:29:58;;;;;;;4.65;2.55;;;14.60;99.90;;;;;;5054971;28;20402;-59
2022/09/02 01:32:25;;;;;;;3.45;1.92;;;14.50;99.90;;;;;;5054632;28;20441;-59
2022/09/02 01:34:51;;;;;;;5.35;2.58;;;14.50;99.90;;;;;;5036805;28;20495;-59
2022/09/02 01:37:18;;;;;;;3.65;2.20;;;14.50;99.90;;;;;;5037019;28;20051;-59
2022/09/02 01:39:44;;;;;;;8.07;2.20;;;14.50;99.90;;;;;;5020313;28;20124;-60
2022/09/02 01:42:11;;;;;;;4.10;2.22;;;14.50;99.90;;;;;;5054669;28;20052;-59
2022/09/02 01:44:42;;;;;;;5.60;2.22;;;14.40;99.90;;;;;;5054252;28;20049;-60
2022/09/02 01:47:14;;;;;;;2.65;2.00;;;14.40;99.90;;;;;;5036294;28;20553;-60
2022/09/02 01:49:40;;;;;;;4.15;2.00;;;14.30;99.90;;;;;;5036272;28;20041;-62
2022/09/02 01:52:07;;;;;;;2.80;1.88;;;14.30;99.90;;;;;;5054432;28;20055;-59
2022/09/02 01:54:33;;;;;;;4.82;1.90;;;14.30;99.90;;;;;;5054004;28;20037;-59
2022/09/02 01:56:59;;;;;;;3.20;1.75;;;14.30;99.90;;;;;;5036727;28;20048;-59
2022/09/02 01:59:25;;;;;;;2.90;1.63;;;14.30;99.90;;;;;;5053996;28;20073;-59
2022/09/02 02:01:50;;;;;;;2.65;1.60;;;14.20;99.90;;;;;;5054075;28;20140;-59
2022/09/02 02:04:17;;;;;;;3.05;1.80;;;14.10;99.90;;;;;;5054331;28;20449;-59
2022/09/02 02:06:47;;;;;;;3.28;1.90;;;14.10;99.90;;;;;;5053877;28;20135;-60
2022/09/02 02:09:13;;;;;;;3.05;1.88;;;14.10;99.90;;;;;;5054654;28;20048;-60
2022/09/02 02:11:39;;;;;;;2.75;1.90;;;14.10;99.90;;;;;;5053944;28;20471;-60
2022/09/02 02:14:05;;;;;;;3.22;2.05;;;14.10;99.90;;;;;;5054240;28;20103;-60
2022/09/02 02:16:31;;;;;;;3.95;1.95;;;14.00;99.90;;;;;;5035974;28;20123;-60
2022/09/02 02:18:58;;;;;;;3.15;1.90;;;14.00;99.90;;;;;;5053406;28;20044;-60
2022/09/02 02:21:24;;;;;;;6.28;1.90;;;14.00;99.90;;;;;;5053620;28;20498;-60
2022/09/02 02:23:50;;;;;;;2.72;2.00;;;14.00;99.90;;;;;;5053753;28;20047;-60
2022/09/02 02:26:16;;;;;;;3.63;2.00;;;13.90;99.90;;;;;;5053863;28;20132;-60
2022/09/02 02:28:42;;;;;;;3.33;1.90;;;13.90;99.90;;;;;;5053581;28;20048;-60
2022/09/02 02:31:08;;;;;;;4.40;1.92;;;13.90;99.90;;;;;;5053752;28;20045;-61
2022/09/02 02:33:34;;;;;;;3.50;2.05;;;13.90;99.90;;;;;;5053572;28;20402;-61
2022/09/02 02:36:03;;;;;;;2.80;2.00;;;13.80;99.90;;;;;;5052901;28;20465;-60
2022/09/02 02:38:29;;;;;;;2.67;1.90;;;13.90;99.90;;;;;;5035235;28;20503;-60
2022/09/02 02:40:56;;;;;;;4.63;2.03;;;13.80;99.90;;;;;;5053488;28;20052;-60
2022/09/02 02:43:24;;;;;;;5.47;2.50;;;13.80;99.90;;;;;;5053542;28;20401;-60
2022/09/02 02:45:49;;;;;;;3.10;2.10;;;13.80;99.90;;;;;;5052881;28;20048;-60
2022/09/02 02:48:15;;;;;;;5.07;2.00;;;13.80;99.90;;;;;;5053123;28;20045;-60
2022/09/02 02:50:41;;;;;;;2.90;1.88;;;13.70;99.90;;;;;;5007641;28;20045;-61
2022/09/02 02:53:07;;;;;;;3.97;2.28;;;13.70;99.90;;;;;;5048530;28;20412;-61
2022/09/02 02:55:34;;;;;;;2.40;1.98;;;13.70;99.90;;;;;;5052907;28;20080;-60
2022/09/02 02:58:00;;;;;;;2.58;1.95;;;13.60;99.90;;;;;;5035413;28;20059;-61
2022/09/02 03:00:29;;;;;;;3.17;2.03;;;13.60;99.90;;;;;;5053236;28;20087;-60
2022/09/02 03:03:03;;;;;;;3.85;2.20;;;13.60;99.90;;;;;;5018441;28;20076;-60
2022/09/02 03:05:29;;;;;;;;;;;13.60;99.90;;;;;;5020049;28;20136;-60
2022/09/02 03:07:55;;;;;;;3.78;2.08;;;13.50;99.90;;;;;;5052674;28;19928;-61
2022/09/02 03:10:22;;;;;;;6.13;2.10;;;13.50;99.90;;;;;;5035420;28;20044;-63
2022/09/02 03:12:49;;;;;;;5.65;2.38;;;13.50;99.90;;;;;;5052733;28;20120;-61
2022/09/02 03:15:17;;;;;;;2.92;2.20;;;13.40;99.90;;;;;;5035354;28;20049;-61
2022/09/02 03:17:47;;;;;;;3.53;2.10;;;13.40;99.90;;;;;;5034994;28;20049;-60
2022/09/02 03:20:15;;;;;;;2.90;2.20;;;13.40;99.90;;;;;;5052595;28;20083;-60
2022/09/02 03:22:43;;;;;;;3.85;2.20;;;13.40;99.90;;;;;;5034600;28;20045;-59
2022/09/02 03:25:10;;;;;;;6.22;2.45;;;13.30;99.90;;;;;;5052697;28;20406;-62
2022/09/02 03:27:37;;;;;;;3.67;2.00;;;13.30;99.90;;;;;;5034331;28;20490;-59
2022/09/02 03:30:05;;;;;;;4.78;2.20;;;13.30;99.90;;;;;;5052581;28;20048;-61
2022/09/02 03:32:31;;;;;;;3.33;2.20;;;13.30;99.90;;;;;;5052386;28;20048;-63
2022/09/02 03:34:56;;;;;;;4.53;2.38;;;13.30;99.90;;;;;;5018242;28;20044;-59
2022/09/02 03:37:22;;;;;;;3.30;2.20;;;13.30;99.90;;;;;;5034841;28;20057;-59
2022/09/02 03:39:48;;;;;;;5.43;2.42;;;13.20;99.90;;;;;;5034201;28;20091;-59
2022/09/02 03:42:14;;;;;;;3.35;2.17;;;13.20;99.90;;;;;;5052319;28;20048;-59
2022/09/02 03:44:40;;;;;;;3.67;2.50;;;13.20;99.90;;;;;;5051923;28;20052;-60
2022/09/02 03:47:07;;;;;;;3.13;2.30;;;13.20;99.90;;;;;;5052701;28;20083;-59
2022/09/02 03:49:33;;;;;;;4.03;2.17;;;13.10;99.90;;;;;;5034576;28;20053;-61
2022/09/02 03:51:59;;;;;;;10.20;2.97;;;13.10;99.90;;;;;;5051496;28;20120;-60
2022/09/02 03:54:24;;;;;;;5.82;2.63;;;13.10;99.90;;;;;;5052163;28;20041;-60
2022/09/02 03:56:50;;;;;;;3.50;1.85;;;13.00;99.90;;;;;;5051960;28;20040;-59
2022/09/02 03:59:16;;;;;;;5.63;2.45;;;13.00;99.90;;;;;;5017844;28;20094;-59
2022/09/02 04:01:42;;;;;;;3.08;2.25;;;13.00;99.90;;;;;;5051751;28;20044;-60
2022/09/02 04:04:08;;;;;;;3.38;2.13;;;12.90;99.90;;;;;;5034032;28;20060;-59
2022/09/02 04:06:33;;;;;;;5.95;2.67;;;12.90;99.90;;;;;;5034263;28;20072;-59
2022/09/02 04:09:00;;;;;;;4.00;2.25;;;12.90;99.90;;;;;;5051569;28;20060;-59
2022/09/02 04:11:25;;;;;;;3.88;2.40;;;12.90;99.90;;;;;;5034158;28;20130;-59
2022/09/02 04:13:52;;;;;;;6.50;2.15;;;12.90;99.90;;;;;;5033773;28;20399;-59
2022/09/02 04:16:27;;;;;;;4.22;2.15;;;12.80;99.90;;;;;;5051955;28;20041;-59
2022/09/02 04:18:55;;;;;;;4.20;2.00;;;12.80;99.90;;;;;;5051568;28;20408;-62
2022/09/02 04:21:23;;;;;;;5.65;2.42;;;12.80;99.90;;;;;;5051695;28;20132;-59
2022/09/02 04:23:48;;;;;;;4.45;2.00;;;12.80;99.90;;;;;;5033940;28;20061;-60
2022/09/02 04:26:16;;;;;;;3.65;2.17;;;12.70;99.90;;;;;;5051854;28;20547;-61
2022/09/02 04:28:42;;;;;;;4.10;2.58;;;12.70;99.90;;;;;;5051553;28;20041;-65
2022/09/02 04:31:11;;;;;;;4.85;2.50;;;12.70;99.90;;;;;;5051392;28;20470;-60
2022/09/02 04:33:38;;;;;;;4.82;2.40;;;12.70;99.90;;;;;;5034014;28;20067;-61
2022/09/02 04:36:06;;;;;;;2.70;2.10;;;12.70;99.90;;;;;;5051152;28;20045;-60
2022/09/02 04:38:31;;;;;;;4.95;2.60;;;12.60;99.90;;;;;;5033218;28;20041;-60
2022/09/02 04:40:57;;;;;;;4.68;2.10;;;12.60;99.90;;;;;;5033175;28;20048;-60
2022/09/02 04:43:23;;;;;;;5.10;2.13;;;12.60;99.90;;;;;;5051283;28;20037;-60
2022/09/02 04:45:50;;;;;;;4.75;2.30;;;12.60;99.90;;;;;;5050939;28;20134;-60
2022/09/02 04:48:17;;;;;;;4.82;2.22;;;12.60;99.90;;;;;;5051627;28;20155;-61
2022/09/02 04:50:44;;;;;;;6.45;2.28;;;12.60;99.90;;;;;;5033709;28;20064;-60
2022/09/02 04:53:10;;;;;;;4.65;2.35;;;12.60;99.90;;;;;;5051449;28;20180;-60
2022/09/02 04:55:40;;;;;;;5.78;2.10;;;12.60;99.90;;;;;;5051313;28;20103;-62
2022/09/02 04:58:07;;;;;;;6.75;2.55;;;12.60;99.90;;;;;;5033258;28;20052;-60
2022/09/02 05:00:33;;;;;;;8.35;2.40;;;12.60;99.90;;;;;;5021136;28;20073;-63
2022/09/02 05:02:59;;;;;;;4.70;2.38;;;12.60;99.90;;;;;;5054807;28;20093;-60
2022/09/02 05:05:24;;;;;;;3.25;2.28;;;12.60;99.90;;;;;;5037518;28;20092;-60
2022/09/02 05:07:50;;;;;;;4.80;2.30;;;12.60;99.90;;;;;;5054841;28;20055;-59
2022/09/02 05:10:16;;;;;;;5.28;2.22;;;12.60;99.90;;;;;;5037534;28;20055;-60
2022/09/02 05:12:42;;;;;;;9.70;2.33;;;12.60;99.90;;;;;;5055033;28;20052;-59
2022/09/02 05:15:10;;;;;;;5.60;2.38;;;12.60;99.90;;;;;;5020188;28;20048;-59
2022/09/02 05:17:36;;;;;;;3.72;2.08;;;12.60;99.90;;;;;;5054968;28;20132;-61
2022/09/02 05:20:05;;;;;;;4.22;2.40;;;12.60;99.90;;;;;;5036743;28;20562;-59
2022/09/02 05:22:31;;;;;;;7.13;2.28;;;12.60;99.90;;;;;;5054953;28;20049;-60
2022/09/02 05:24:57;;;;;;;5.10;2.28;;;12.60;99.90;;;;;;5036791;28;20131;-59
2022/09/02 05:27:22;;;;;;;3.70;2.20;;;12.60;99.90;;;;;;5054716;28;20141;-61
2022/09/02 05:29:48;;;;;;;3.03;2.13;;;12.60;99.90;;;;;;5054997;28;20371;-60
2022/09/02 05:32:14;;;;;;;6.72;2.45;;;12.60;99.90;;;;;;5054456;28;20048;-60
2022/09/02 05:34:40;;;;;;;3.60;2.30;;;12.70;99.90;;;;;;5054676;28;20048;-60
2022/09/02 05:37:06;;;;;;;6.18;2.28;;;12.80;99.90;;;;;;5054404;28;20447;-61
2022/09/02 05:39:32;;;;;;;5.75;2.35;;;13.00;99.90;;;;;;5020059;28;20045;-60
2022/09/02 05:41:58;;;;;;;6.85;2.30;;;13.10;99.90;;;;;;5036555;28;20051;-60
2022/09/02 05:44:24;;;;;;;3.95;1.95;;;13.30;99.90;;;;;;5054513;28;20092;-60
2022/09/02 05:46:49;;;;;;;3.33;2.08;;;13.60;99.90;;;;;;5036531;28;20049;-59
2022/09/02 05:49:20;;;;;;;5.35;2.10;;;14.20;99.90;;;;;;5053722;28;20045;-60
2022/09/02 05:51:51;;;;;;;3.72;1.95;;;15.00;99.90;;;;;;5036895;28;20053;-59
2022/09/02 05:54:30;;;;;;;4.75;1.90;;;15.90;99.90;;;;;;5054079;28;20049;-59
2022/09/02 05:56:59;;;;;;;3.42;1.63;;;16.80;99.90;;;;;;5053939;28;20045;-59
2022/09/02 05:59:26;;;;;;;3.78;1.90;;;17.40;99.90;;;;;;5053991;28;20056;-59
2022/09/02 06:01:52;;;;;;;3.85;1.70;;;18.10;99.90;;;;;;5054017;28;20052;-60
2022/09/02 06:04:20;;;;;;;5.90;1.90;;;18.70;99.90;;;;;;5035684;28;20045;-60
2022/09/02 06:06:46;;;;;;;3.90;2.20;;;19.20;97.30;;;;;;5053862;28;20053;-59
2022/09/02 06:09:15;;;;;;;6.32;1.90;;;19.80;97.00;;;;;;5003574;28;20052;-61
2022/09/02 06:11:48;;;;;;;4.53;1.83;;;20.10;97.00;;;;;;5034509;28;20124;-61
2022/09/02 06:14:20;;;;;;;5.47;1.90;;;20.60;96.40;;;;;;5035545;28;20040;-62
2022/09/02 06:16:47;;;;;;;3.53;1.60;;;21.00;95.80;;;;;;5053729;28;20501;-63
2022/09/02 06:19:13;;;;;;;5.32;1.70;;;20.90;95.40;;;;;;5035599;28;20521;-61
2022/09/02 06:21:41;;;;;;;2.42;1.65;;;20.20;94.10;;;;;;5019872;28;20053;-61
2022/09/02 06:24:09;;;;;;;3.55;1.80;;;19.70;94.90;;;;;;5053508;28;20060;-60
2022/09/02 06:26:37;;;;;;;5.05;1.75;;;19.10;94.80;;;;;;5019123;28;20494;-61
2022/09/02 06:29:03;;;;;;;3.15;1.60;;;18.40;95.30;;;;;;5053034;28;20498;-60
2022/09/02 06:31:29;;;;;;;2.85;1.75;;;17.90;96.10;;;;;;5053178;28;20053;-61
2022/09/02 06:33:57;;;;;;;2.97;1.70;;;17.50;96.70;;;;;;5053087;28;20147;-63
2022/09/02 06:36:25;;;;;;;10.93;2.08;;;17.10;97.20;;;;;;5053106;28;20382;-62
2022/09/02 06:38:54;;;;;;;5.65;1.73;;;16.90;97.80;;;;;;5053334;28;20045;-61
2022/09/02 06:41:25;;;;;;;4.57;2.00;;;16.70;98.30;;;;;;5035235;28;20037;-62
2022/09/02 06:43:52;;;;;;;6.03;1.92;;;16.80;98.70;;;;;;5036094;28;20052;-62
2022/09/02 06:46:24;;;;;;;2.65;1.70;;;17.10;98.60;;;;;;5053207;28;20045;-60
2022/09/02 06:48:50;;;;;;;4.18;2.00;;;17.30;98.40;;;;;;5035882;28;20103;-60
2022/09/02 06:51:30;;;;;;;5.13;1.80;;;17.20;98.20;;;;;;5034937;28;20040;-60
2022/09/02 06:53:57;;;;;;;3.35;1.83;;;17.00;98.30;;;;;;5053092;28;20049;-61
2022/09/02 06:56:23;;;;;;;3.67;2.00;;;16.90;98.60;;;;;;5035348;28;20053;-60
2022/09/02 06:58:48;;;;;;;3.05;2.00;;;16.70;98.70;;;;;;5053221;28;20624;-61
2022/09/02 07:01:23;;;;;;;5.10;2.22;;;16.70;99.00;;;;;;5035226;28;20049;-62
2022/09/02 07:06:38;;;;;;;3.35;1.95;;;16.50;99.20;;;;;;5052932;28;19920;-61
2022/09/02 07:09:09;;;;;;;5.32;1.95;;;16.40;99.40;;;;;;5034922;28;20077;-60
2022/09/02 07:11:36;;;;;;;3.10;1.85;;;16.40;99.50;;;;;;5052713;28;20060;-61
2022/09/02 07:14:02;;;;;;;3.00;1.88;;;16.50;99.40;;;;;;5052884;28;20049;-60
2022/09/02 07:16:30;;;;;;;4.75;1.90;;;16.40;99.60;;;;;;5052833;28;20100;-60
2022/09/02 07:18:56;;;;;;;3.13;2.10;;;16.40;99.60;;;;;;5035156;28;20045;-60
2022/09/02 07:21:22;;;;;;;3.80;1.83;;;16.50;99.90;;;;;;5034269;28;20063;-61
2022/09/02 07:23:48;;;;;;;4.45;2.25;;;16.50;99.90;;;;;;5034936;28;20053;-61
2022/09/02 07:26:16;;;;;;;5.72;2.10;;;16.60;99.90;;;;;;5034633;28;20052;-62
2022/09/02 07:28:42;;;;;;;4.32;1.90;;;16.70;99.90;;;;;;5052672;28;20121;-62
2022/09/02 07:31:10;;;;;;;4.47;2.03;;;16.80;99.70;;;;;;5052029;28;20054;-62
2022/09/02 07:33:36;;;;;;;4.13;1.90;;;16.90;99.70;;;;;;5034929;28;20104;-61
2022/09/02 07:36:05;;;;;;;4.90;2.10;;;17.10;99.70;;;;;;5052622;28;20053;-61
2022/09/02 07:38:32;;;;;;;3.88;1.90;;;17.20;99.60;;;;;;5052379;28;20426;-61
2022/09/02 07:40:59;;;;;;;4.30;1.98;;;17.30;99.10;;;;;;5052285;28;20044;-63
2022/09/02 07:43:26;;;;;;;4.00;2.03;;;17.60;98.80;;;;;;5018013;28;20080;-62
2022/09/02 07:45:54;;;;;;;4.30;2.03;;;18.30;99.10;;;;;;5052278;28;20371;-61
2022/09/02 07:48:21;;;;;;;3.83;1.90;;;19.40;99.10;;;;;;5034399;28;20431;-61
2022/09/02 07:50:47;;;;;;;4.78;1.67;;;20.50;98.10;;;;;;5052161;28;20151;-61
2022/09/02 07:53:15;;;;;;;2.90;1.60;;;21.50;94.90;;;;;;5034337;28;20152;-62
2022/09/02 07:55:42;;;;;;;3.65;2.00;;;22.40;95.20;;;;;;5052076;28;20048;-63
2022/09/02 07:58:07;;;;;;;4.20;1.73;;;23.20;93.90;;;;;;5034411;28;20056;-63
2022/09/02 08:00:35;;;;;;;2.60;1.60;;;23.80;94.00;;;;;;5051676;28;20044;-62
2022/09/02 08:03:01;;;;;;;2.65;1.52;;;;;;;;;;5033741;28;20498;-63
2022/09/02 08:05:28;;;;;;;5.70;1.80;;;24.30;93.30;;;;;;5033940;28;20045;-63
2022/09/02 08:07:54;;;;;;;2.53;1.63;;;25.20;91.30;;;;;;5017985;28;20048;-63
2022/09/02 08:10:20;;;;;;;3.05;1.50;;;25.50;90.30;;;;;;5033349;28;20041;-63
2022/09/02 08:12:46;;;;;;;2.75;1.30;;;25.70;88.90;;;;;;5051280;28;20461;-63
2022/09/02 08:15:14;;;;;;;2.83;1.70;;;26.00;90.30;;;;;;5051110;28;20049;-65
2022/09/02 08:17:40;;;;;;;3.90;1.80;;;26.30;88.50;;;;;;5017726;28;20120;-61
2022/09/02 08:20:11;;;;;;;3.53;1.50;;;;;;;;;;5051350;28;20119;-61
2022/09/02 08:22:37;;;;;;;3.70;1.52;;;;;;;;;;5033457;28;20059;-61
2022/09/02 08:25:03;;;;;;;3.92;1.88;;;26.40;88.70;;;;;;5033981;28;20095;-62
2022/09/02 08:27:31;;;;;;;9.65;2.10;;;27.30;83.90;;;;;;5051154;28;20049;-61
2022/09/02 08:29:57;;;;;;;5.90;1.77;;;27.40;86.50;;;;;;5033500;28;20280;-62
2022/09/02 08:32:24;;;;;;;2.95;1.50;;;27.60;86.30;;;;;;5051188;28;20049;-61
2022/09/02 08:34:50;;;;;;;3.45;1.63;;;27.60;85.20;;;;;;5050874;28;20465;-63
2022/09/02 08:37:17;;;;;;;3.33;1.40;;;27.50;85.50;;;;;;5033576;28;20162;-63
2022/09/02 08:39:44;;;;;;;4.55;1.52;;;27.70;84.20;;;;;;5018146;28;20080;-62
2022/09/02 08:42:42;;;;;;;5.47;1.80;;;28.10;85.10;;;;;;5032777;28;20056;-63
2022/09/02 08:45:17;;;;;;;5.32;1.80;;;28.30;83.00;;;;;;5051616;28;20422;-62
2022/09/02 08:47:46;;;;;;;5.88;1.75;;;28.50;83.80;;;;;;5034100;28;20438;-61
2022/09/02 08:50:16;;;;;;;3.10;1.63;;;28.50;83.00;;;;;;5033758;28;20390;-63
2022/09/02 08:52:44;;;;;;;2.55;1.27;;;;;;;;;;5051237;28;20120;-62
2022/09/02 08:55:18;;;;;;;5.45;1.40;;;28.50;84.00;;;;;;5033780;28;20047;-60
2022/09/02 08:57:44;;;;;;;2.58;1.60;;;29.00;82.10;;;;;;5033918;28;20111;-60
2022/09/02 09:00:12;;;;;;;3.72;1.40;;;28.80;82.90;;;;;;5016875;28;20123;-63
2022/09/02 09:02:46;;;;;;;3.65;1.30;;;28.90;82.50;;;;;;5016496;28;20625;-62
2022/09/02 09:05:21;;;;;;;4.30;1.52;;;28.60;80.90;;;;;;5033733;28;20049;-63
2022/09/02 09:08:08;;;;;;;3.55;1.50;;;28.30;81.70;;;;;;5033231;28;20059;-63
2022/09/02 09:10:59;;;;;;;3.33;1.88;;;28.00;82.10;;;;;;5033073;28;20052;-61
2022/09/02 09:14:01;;;;;;;2.83;1.60;;;27.80;82.10;;;;;;5033314;28;20144;-62
2022/09/02 09:16:58;;;;;;;2.10;1.40;;;27.80;82.30;;;;;;5033103;28;20063;-64
2022/09/02 09:19:32;;;;;;;3.97;1.70;;;27.80;82.70;;;;;;5033111;28;20142;-62
2022/09/02 09:22:02;;;;;;;8.38;1.80;;;28.00;81.80;;;;;;5050795;28;20124;-64
2022/09/02 09:24:45;;;;;;;3.47;1.50;;;28.50;81.20;;;;;;5050562;28;20060;-62
2022/09/02 09:27:20;;;;;;;4.43;1.60;;;28.50;80.20;;;;;;5016614;28;20045;-62
2022/09/02 09:29:47;;;;;;;4.65;1.80;;;28.00;80.00;;;;;;5050789;28;20391;-61
2022/09/02 09:32:20;;;;;;;3.45;1.38;;;27.50;81.00;;;;;;5033128;28;20049;-62
2022/09/02 09:34:56;;;;;;;4.15;1.67;;;26.90;81.00;;;;;;5033256;28;20136;-62
2022/09/02 09:37:46;;;;;;;3.03;1.60;;;26.30;81.30;;;;;;5050544;28;20049;-65
2022/09/02 09:40:24;;;;;;;3.15;1.58;;;25.80;81.90;;;;;;5032427;28;20397;-60
2022/09/02 09:42:55;;;;;;;4.60;1.40;;;25.40;82.80;;;;;;5033014;28;20141;-63
2022/09/02 09:45:31;;;;;;;5.65;1.80;;;25.10;82.70;;;;;;5052221;28;20446;-62
2022/09/02 09:48:18;;;;;;;3.08;1.52;;;24.80;83.60;;;;;;5036204;28;20331;-63
2022/09/02 09:51:08;;;;;;;3.53;1.67;;;24.70;83.50;;;;;;5053643;28;20219;-63
2022/09/02 09:53:36;;;;;;;4.88;1.70;;;24.40;83.70;;;;;;5053291;28;20065;-63
2022/09/02 09:56:21;;;;;;;5.00;1.70;;;24.20;84.70;;;;;;5019834;28;20390;-62
2022/09/02 09:58:48;;;;;;;3.08;1.50;;;24.10;85.10;;;;;;5035607;28;20068;-63
2022/09/02 10:01:35;;;;;;;3.47;1.83;;;24.00;84.90;;;;;;5053449;28;20055;-64
2022/09/02 10:04:08;;;;;;;5.38;1.80;;;23.90;84.60;;;;;;5032185;28;20073;-64
2022/09/02 10:06:41;;;;;;;3.28;1.48;;;23.80;84.60;;;;;;5015997;28;20155;-63
2022/09/02 10:09:13;;;;;;;5.72;1.63;;;23.80;85.00;;;;;;5016266;28;20041;-63
2022/09/02 10:11:52;;;;;;;8.23;2.17;;;23.80;85.60;;;;;;5015710;28;20057;-63
2022/09/02 10:14:18;;;;;;;3.25;1.65;;;23.90;85.40;;;;;;5033974;28;20455;-63
2022/09/02 10:16:57;;;;;;;2.92;1.50;;;24.00;84.70;;;;;;5015760;28;20053;-63
2022/09/02 10:19:29;;;;;;;4.40;1.55;;;24.00;84.40;;;;;;5015880;28;20359;-63
2022/09/02 10:22:17;;;;;;;4.63;1.88;;;24.00;84.00;;;;;;5015985;28;20088;-63
2022/09/02 10:24:46;;;;;;;4.57;1.55;;;24.00;83.80;;;;;;5032686;28;20073;-63
2022/09/02 10:27:16;;;;;;;3.22;1.23;;;23.90;83.80;;;;;;5033661;28;20188;-63
2022/09/02 10:29:45;;;;;;;2.50;1.50;;;23.90;83.50;;;;;;5015533;28;20037;-63
2022/09/02 10:32:36;;;;;;;4.05;1.67;;;23.80;83.80;;;;;;5015412;28;20045;-62
2022/09/02 10:35:15;;;;;;;2.65;1.48;;;23.80;84.20;;;;;;5015504;28;20054;-63
2022/09/02 10:37:59;;;;;;;3.70;1.30;;;23.80;83.40;;;;;;4998788;28;20492;-63
2022/09/02 10:41:11;;;;;;;5.43;1.35;;;23.70;83.10;;;;;;5033737;28;20128;-63
2022/09/02 10:43:55;;;;;;;6.40;1.70;;;23.70;83.50;;;;;;4995414;28;20045;-64
2022/09/02 10:46:23;;;;;;;3.88;1.50;;;23.70;83.40;;;;;;4999669;28;20099;-63
2022/09/02 10:49:05;;;;;;;3.60;1.60;;;23.80;83.10;;;;;;5015383;28;20263;-63
2022/09/02 10:51:44;;;;;;;4.47;1.63;;;23.80;83.70;;;;;;5015340;28;20077;-63
2022/09/02 10:54:18;;;;;;;2.88;1.55;;;23.90;83.80;;;;;;5015582;28;20122;-63
2022/09/02 10:57:03;;;;;;;8.18;1.75;;;23.80;83.60;;;;;;5014727;28;20056;-66
2022/09/02 10:59:34;;;;;;;;;;;23.80;84.20;;;;;;5015462;28;20045;-63
2022/09/02 11:02:10;;;;;;;3.10;1.55;;;23.80;84.30;;;;;;5032738;28;19925;-63
2022/09/02 11:05:02;;;;;;;3.85;1.60;;;23.80;83.50;;;;;;5053029;28;20112;-67
2022/09/02 11:07:57;;;;;;;3.65;1.50;;;24.00;83.20;;;;;;5053041;28;20136;-63
2022/09/02 11:10:31;;;;;;;5.78;1.50;;;24.10;84.00;;;;;;5023607;28;20530;-62
2022/09/02 11:13:35;;;;;;;4.25;1.63;;;24.20;83.70;;;;;;5034573;28;20099;-62
2022/09/02 11:16:04;;;;;;;6.07;1.70;;;24.20;83.30;;;;;;5052421;28;20084;-63
2022/09/02 11:18:56;;;;;;;4.32;1.35;;;24.20;82.70;;;;;;5052720;28;20063;-63
2022/09/02 11:22:07;;;;;;;4.65;1.50;;;24.10;83.40;;;;;;5052493;28;20549;-62
2022/09/02 11:24:50;;;;;;;2.58;1.48;;;24.10;83.30;;;;;;5021138;28;20049;-62
2022/09/02 11:27:33;;;;;;;3.80;1.58;;;24.20;82.30;;;;;;5018470;28;20041;-64
2022/09/02 11:30:14;;;;;;;4.28;1.10;;;24.20;82.10;;;;;;5051860;28;20048;-62
2022/09/02 11:32:51;;;;;;;1.98;1.10;;;24.10;79.90;;;;;;5017638;28;20059;-65
2022/09/02 11:35:26;;;;;;;5.13;1.48;;;24.00;80.30;;;;;;5052018;28;20076;-65
2022/09/02 11:38:04;;;;;;;3.70;1.48;;;24.00;80.60;;;;;;5051933;28;20071;-61
2022/09/02 11:40:51;;;;;;;4.35;1.40;;;24.10;81.60;;;;;;5034149;28;20045;-61
2022/09/02 11:43:39;;;;;;;3.90;1.20;;;24.10;81.50;;;;;;5052052;28;20049;-63
2022/09/02 11:46:29;;;;;;;5.63;1.40;;;24.10;80.60;;;;;;5051797;28;20486;-61
2022/09/02 11:49:17;;;;;;;3.97;1.30;;;24.10;82.10;;;;;;5034140;28;20049;-63
2022/09/02 11:52:04;;;;;;;4.03;1.42;;;24.10;81.90;;;;;;5051613;28;20051;-66
2022/09/02 11:54:43;;;;;;;4.70;1.48;;;24.10;81.20;;;;;;5034416;28;20430;-59
2022/09/02 11:57:22;;;;;;;2.40;1.42;;;24.20;80.50;;;;;;5051819;28;20049;-59
2022/09/02 11:59:50;;;;;;;2.55;1.30;;;24.40;80.60;;;;;;5033828;28;20056;-62
2022/09/02 12:02:38;;;;;;;5.20;1.98;;;24.40;80.60;;;;;;5051402;28;20061;-62
2022/09/02 12:05:28;;;;;;;2.83;1.50;;;24.50;80.40;;;;;;5051432;28;20049;-59
2022/09/02 12:08:10;;;;;;;2.15;1.33;;;24.40;80.60;;;;;;5033703;28;20052;-59
2022/09/02 12:10:46;;;;;;;3.72;1.58;;;24.40;80.80;;;;;;5051891;28;20406;-59
2022/09/02 12:13:32;;;;;;;2.85;1.30;;;24.50;80.70;;;;;;5051562;28;20049;-59
2022/09/02 12:16:19;;;;;;;2.65;1.20;;;24.60;79.90;;;;;;5033619;28;20049;-59
2022/09/02 12:18:54;;;;;;;4.18;1.85;;;24.70;79.50;;;;;;5033721;28;20053;-62
2022/09/02 12:21:30;;;;;;;2.22;1.33;;;24.60;80.10;;;;;;5051189;28;20498;-59
2022/09/02 12:23:56;;;;;;;3.67;1.30;;;24.50;80.10;;;;;;5051356;28;20051;-59
2022/09/02 12:26:34;;;;;;;4.90;1.60;;;24.50;80.90;;;;;;5051556;28;20045;-60
2022/09/02 12:29:13;;;;;;;4.53;1.27;;;24.50;81.10;;;;;;5017037;28;20128;-59
2022/09/02 12:31:42;;;;;;;4.07;1.45;;;24.60;80.50;;;;;;5051443;28;20049;-60
2022/09/02 12:34:19;;;;;;;3.80;1.60;;;24.60;79.80;;;;;;5050919;28;20061;-62
2022/09/02 12:36:51;;;;;;;3.28;1.30;;;24.60;80.10;;;;;;5051225;28;20040;-59
2022/09/02 12:39:23;;;;;;;3.80;1.48;;;24.70;79.10;;;;;;5051441;28;20045;-60
2022/09/02 12:42:20;;;;;;;3.38;1.40;;;24.80;79.50;;;;;;5051193;28;20048;-62
2022/09/02 12:44:58;;;;;;;3.35;1.08;;;24.80;78.30;;;;;;5043216;28;20163;-62
2022/09/02 12:47:43;;;;;;;4.45;1.48;;;24.80;78.70;;;;;;5033552;28;20375;-61
2022/09/02 12:50:19;;;;;;;3.17;1.45;;;24.80;79.10;;;;;;5016859;28;20052;-60
2022/09/02 12:53:23;;;;;;;4.60;1.85;;;24.80;79.70;;;;;;5051159;28;20179;-60
2022/09/02 12:56:05;;;;;;;1.57;1.10;;;24.80;80.00;;;;;;5051095;28;20542;-60
2022/09/02 12:58:40;;;;;;;4.03;1.40;;;24.80;78.90;;;;;;5032121;28;20285;-62
2022/09/02 13:01:36;;;;;;;2.28;1.30;;;24.80;79.80;;;;;;5050693;28;20045;-61
2022/09/02 13:04:20;;;;;;;3.08;1.30;;;24.80;79.10;;;;;;5016393;28;20107;-60
2022/09/02 13:07:24;;;;;;;3.90;1.20;;;24.80;79.40;;;;;;5051166;28;20045;-60
2022/09/02 13:09:58;;;;;;;3.53;1.27;;;24.80;78.80;;;;;;4969828;28;20134;-61
2022/09/02 13:12:42;;;;;;;;;;;24.80;77.90;;;;;;4998083;28;20056;-60